Latest Weather Observations for Ngukurr AWS

IDD60801

Issued at 10:31 pm CST Tuesday 28 June 2016 (issued every 30 minutes, with the page automatically refreshed every 10 minutes)

About weather observations | Map of weather stations | Latest weather observations for NT | Other Formats
Station Details ID: 014299 Name: NGUKURR AIRPORT Lat: -14.72 Lon: 134.75 Height: 14.46 m
Data from the previous 72 hours. | See also: Recent months at Ngukurr AWS
Date/Time
CST
Temp
°C
App
Temp
°C
Dew
Point
°C
Rel
Hum
%
Delta-T
°C
Wind Press
QNH
hPa
Press
MSL
hPa
Rain since
9am
mm
Dir  Spd
km/h
Gust
km/h
Spd
kts
Gust
kts
28/10:30pm 20.1 22.2 16.3 79 2.3 CALM 0 2 0 1 1017.7 1017.7 0.0
28/10:00pm 20.8 22.3 15.8 73 3.0 E 2 4 1 2 1017.9 1017.9 0.0
28/09:30pm 22.4 23.8 16.4 69 3.6 ENE 4 6 2 3 1017.8 1017.8 0.0
28/09:00pm 23.0 23.8 16.3 66 4.1 ENE 7 11 4 6 1017.8 1017.8 0.0
28/08:30pm 23.4 24.1 16.0 63 4.5 ENE 7 11 4 6 1017.8 1017.8 0.0
28/08:00pm 23.9 24.3 15.4 59 5.1 ENE 7 11 4 6 1017.4 1017.4 0.0
28/07:30pm 24.4 24.7 15.1 56 5.6 E 7 13 4 7 1017.0 1017.0 0.0
28/07:00pm 25.0 24.7 14.5 52 6.2 E 9 13 5 7 1016.6 1016.6 0.0
28/06:30pm 25.8 25.2 14.6 50 6.7 ENE 11 17 6 9 1016.4 1016.4 0.0
28/06:00pm 26.6 25.5 14.4 47 7.3 ENE 13 19 7 10 1015.9 1015.9 0.0
28/05:30pm 27.7 26.1 14.0 43 8.2 NE 15 24 8 13 1015.6 1015.6 0.0
28/05:00pm 28.8 27.2 13.9 40 8.9 E 15 22 8 12 1015.3 1015.3 0.0
28/04:30pm 28.7 26.8 13.0 38 9.3 ENE 15 20 8 11 1015.0 1015.0 0.0
28/04:00pm 29.5 26.6 12.4 35 10.0 ENE 19 28 10 15 1015.0 1015.0 0.0
28/03:30pm 30.7 28.3 12.6 33 10.7 ENE 17 24 9 13 1014.7 1014.7 0.0
28/03:00pm 30.8 28.7 11.2 30 11.3 E 13 20 7 11 1014.9 1014.9 0.0
28/02:30pm 30.5 28.1 11.5 31 11.0 E 15 24 8 13 1015.2 1015.2 0.0
28/02:00pm 30.3 27.9 11.3 31 11.0 E 15 22 8 12 1015.5 1015.5 0.0
28/01:30pm 30.1 28.0 11.1 31 10.9 ESE 13 22 7 12 1015.9 1015.9 0.0
28/01:00pm 29.1 26.1 10.7 32 10.5 E 17 24 9 13 1016.6 1016.6 0.0
28/12:30pm 29.0 26.7 10.6 32 10.4 E 13 22 7 12 1017.2 1017.2 0.0
28/12:00pm 28.0 25.3 10.2 33 10.0 E 15 24 8 13 1017.7 1017.7 0.0
28/11:30am 27.6 24.9 10.3 34 9.7 E 15 22 8 12 1018.2 1018.2 0.0
28/11:00am 26.5 24.1 10.2 36 9.1 ESE 13 22 7 12 1018.4 1018.4 0.0
28/10:30am 25.7 22.6 10.3 38 8.5 ESE 17 22 9 12 1018.7 1018.7 0.0
28/10:00am 25.3 22.6 10.4 39 8.3 ESE 15 24 8 13 1018.7 1018.7 0.0
28/09:30am 24.0 21.3 10.3 42 7.5 SE 15 24 8 13 1018.7 1018.7 0.0
28/09:00am 23.3 20.7 10.7 45 7.0 SE 15 22 8 12 1018.6 1018.6 0.0
28/08:30am 22.5 20.2 10.3 46 6.7 SE 13 24 7 13 1018.2 1018.2 0.0
28/08:00am 21.8 20.6 11.5 52 5.7 SE 9 15 5 8 1017.8 1017.8 0.0
28/07:30am 20.9 20.5 12.3 58 4.8 SSE 6 9 3 5 1017.4 1017.4 0.0
28/07:00am 20.6 20.2 13.1 62 4.3 SSE 7 9 4 5 1017.0 1017.0 0.0
28/06:30am 21.2 21.4 14.6 66 3.9 SSE 7 13 4 7 1016.6 1016.6 0.0
28/06:00am 22.1 24.1 19.1 83 1.9 SSE 7 11 4 6 1016.3 1016.3 0.0
28/05:30am 22.4 24.6 20.5 89 1.2 SE 9 15 5 8 1015.8 1015.8 0.0
28/05:00am 22.6 25.4 20.9 90 1.1 SE 7 11 4 6 1015.7 1015.7 0.0
28/04:30am 23.0 25.5 21.1 89 1.2 SE 9 15 5 8 1015.5 1015.5 0.0
28/04:00am 23.1 26.0 21.0 88 1.4 SE 7 13 4 7 1015.5 1015.5 0.0
28/03:30am 23.5 25.6 21.0 86 1.6 SE 11 15 6 8 1015.5 1015.5 0.0
28/03:00am 23.7 26.2 21.0 85 1.8 SE 9 15 5 8 1015.6 1015.6 0.0
28/02:30am 23.8 26.5 21.3 86 1.6 SE 9 17 5 9 1015.7 1015.7 0.0
28/02:00am 23.8 26.6 20.9 84 1.9 SE 7 13 4 7 1015.9 1015.9 0.0
28/01:30am 23.6 26.2 20.5 83 2.0 SSE 7 11 4 6 1016.1 1016.1 0.0
28/01:00am 23.4 26.2 20.5 84 1.9 SE 6 9 3 5 1016.1 1016.1 0.0
28/12:30am 23.9 26.7 20.4 81 2.3 ESE 6 7 3 4 1016.1 1016.1 0.0
28/12:00am 23.9 27.0 20.2 80 2.4 ESE 4 7 2 4 1016.0 1016.0 0.0
 
Date/Time
CST
Temp
°C
App
Temp
°C
Dew
Point
°C
Rel
Hum
%
Delta-T
°C
Wind Press
QNH
hPa
Press
MSL
hPa
Rain since
9am
mm
Dir  Spd
km/h
Gust
km/h
Spd
kts
Gust
kts
27/11:30pm 24.1 26.7 20.0 78 2.6 SE 6 7 3 4 1016.1 1016.1 0.0
27/11:00pm 23.8 26.2 18.9 74 3.1 SE 4 6 2 3 1016.1 1016.1 0.0
27/10:30pm 25.2 28.0 19.6 71 3.6 E 4 7 2 4 1015.9 1015.9 0.0
27/10:00pm 25.5 28.1 19.2 68 4.0 ENE 4 7 2 4 1015.9 1015.9 0.0
27/09:30pm 25.9 28.3 18.8 65 4.5 E 4 6 2 3 1015.6 1015.6 0.0
27/09:00pm 26.4 27.9 18.8 63 4.9 E 9 13 5 7 1015.4 1015.4 0.0
27/08:30pm 26.8 28.5 18.1 59 5.5 E 6 7 3 4 1015.2 1015.2 0.0
27/08:00pm 27.5 28.7 18.2 57 5.9 ENE 9 13 5 7 1014.8 1014.8 0.0
27/07:30pm 28.0 28.5 17.5 52 6.6 ENE 11 15 6 8 1014.6 1014.6 0.0
27/07:00pm 28.7 28.7 16.3 47 7.7 ENE 11 20 6 11 1014.3 1014.3 0.0
27/06:30pm 29.3 28.4 15.8 44 8.3 E 15 20 8 11 1014.0 1014.0 0.0
27/06:00pm 29.9 28.2 16.3 43 8.5 E 20 28 11 15 1013.6 1013.6 0.0
27/05:30pm 30.8 29.3 16.4 42 9.0 ENE 19 26 10 14 1013.1 1013.1 0.0
27/05:00pm 31.6 29.6 15.5 37 10.0 ENE 20 28 11 15 1012.7 1012.7 0.0
27/04:30pm 32.6 30.5 15.1 34 10.8 ENE 20 30 11 16 1012.3 1012.3 0.0
27/04:00pm 33.2 31.1 14.8 33 11.4 E 19 32 10 17 1012.0 1012.0 0.0
27/03:30pm 33.5 31.5 15.0 32 11.5 E 19 28 10 15 1011.9 1011.9 0.0
27/03:00pm 33.8 31.9 14.3 31 12.0 ESE 17 26 9 14 1012.0 1012.0 0.0
27/02:30pm 33.7 31.8 15.2 33 11.5 E 19 28 10 15 1012.2 1012.2 0.0
27/02:00pm 33.4 31.9 16.3 36 10.8 ESE 19 28 10 15 1012.4 1012.4 0.0
27/01:30pm 33.2 32.5 16.5 36 10.6 ESE 15 24 8 13 1012.8 1012.8 0.0
27/01:00pm 32.9 32.7 17.5 39 9.9 E 15 28 8 15 1013.2 1013.2 0.0
27/12:30pm 32.1 31.0 17.2 41 9.5 E 19 32 10 17 1013.8 1013.8 0.0
27/12:00pm 31.1 32.3 19.1 48 7.8 SE 11 24 6 13 1014.2 1014.2 0.0
27/11:30am 30.5 32.6 20.1 53 6.9 E 9 15 5 8 1014.5 1014.5 0.0
27/11:00am 29.3 31.4 20.2 58 6.0 ESE 9 17 5 9 1014.9 1014.9 0.0
27/10:30am 28.7 30.9 21.2 64 5.0 E 11 17 6 9 1015.2 1015.2 0.0
27/10:00am 27.6 30.2 21.9 71 3.8 E 11 19 6 10 1015.4 1015.4 0.0
27/09:30am 27.0 29.9 22.4 76 3.1 E 11 20 6 11 1015.4 1015.4 0.0
27/09:00am 25.6 29.7 23.3 87 1.6 ENE 7 17 4 9 1015.3 1015.3 0.0
27/08:30am 23.3 28.6 23.0 98 0.2 CALM 0 2 0 1 1015.0 1015.0 0.0
27/08:00am 21.9 26.5 21.7 99 0.1 CALM 0 0 0 0 1014.6 1014.6 0.0
27/07:30am 21.1 25.3 20.9 99 0.1 CALM 0 0 0 0 1014.2 1014.2 0.0
27/07:00am 20.0 23.6 19.7 98 0.2 CALM 0 0 0 0 1013.9 1013.9 0.0
27/06:30am 19.6 23.0 19.3 98 0.2 CALM 0 0 0 0 1013.6 1013.6 0.0
27/06:00am 19.4 22.7 19.2 99 0.1 CALM 0 0 0 0 1013.3 1013.3 0.0
27/05:30am 19.5 22.8 19.2 98 0.2 CALM 0 0 0 0 1013.2 1013.2 0.0
27/05:00am 19.6 23.0 19.3 98 0.2 CALM 0 0 0 0 1013.0 1013.0 0.0
27/04:30am 19.5 22.8 19.2 98 0.2 CALM 0 0 0 0 1012.8 1012.8 0.0
27/04:00am 20.0 23.6 19.7 98 0.2 CALM 0 0 0 0 1012.7 1012.7 0.0
27/03:30am 19.9 23.4 19.6 98 0.2 CALM 0 0 0 0 1012.6 1012.6 0.0
27/03:00am 20.5 24.3 20.2 98 0.2 CALM 0 0 0 0 1012.7 1012.7 0.0
27/02:30am 20.8 24.8 20.5 98 0.2 CALM 0 0 0 0 1012.8 1012.8 0.0
27/02:00am 20.8 24.8 20.5 98 0.2 CALM 0 0 0 0 1013.0 1013.0 0.0
27/01:30am 21.1 25.1 20.6 97 0.3 CALM 0 0 0 0 1013.3 1013.3 0.0
27/01:00am 22.0 26.3 21.2 95 0.5 CALM 0 0 0 0 1013.3 1013.3 0.0
27/12:30am 21.7 25.8 20.7 94 0.6 CALM 0 0 0 0 1013.4 1013.4 0.0
27/12:00am 22.3 26.1 20.2 88 1.4 CALM 0 2 0 1 1013.4 1013.4 0.0
 
Date/Time
CST
Temp
°C
App
Temp
°C
Dew
Point
°C
Rel
Hum
%
Delta-T
°C
Wind Press
QNH
hPa
Press
MSL
hPa
Rain since
9am
mm
Dir  Spd
km/h
Gust
km/h
Spd
kts
Gust
kts
26/11:30pm 23.5 27.3 21.6 89 1.3 ENE 4 6 2 3 1013.5 1013.5 0.0
26/11:00pm 22.8 26.3 19.6 82 2.0 CALM 0 6 0 3 1013.7 1013.7 0.0
26/10:30pm 24.1 27.4 20.8 82 2.2 NNE 4 6 2 3 1013.6 1013.6 0.0
26/10:00pm 24.5 27.7 20.6 79 2.5 NE 4 6 2 3 1013.5 1013.5 0.0
26/09:30pm 25.1 27.8 20.6 76 2.9 NE 7 9 4 5 1013.3 1013.3 0.0
26/09:00pm 25.7 28.2 20.3 72 3.5 NE 7 13 4 7 1013.1 1013.1 0.0
26/08:30pm 26.4 28.9 19.8 67 4.3 E 6 11 3 6 1012.9 1012.9 0.0
26/08:00pm 27.3 29.4 19.4 62 5.1 E 7 11 4 6 1012.6 1012.6 0.0
26/07:30pm 28.3 29.1 19.0 57 6.0 E 13 17 7 9 1012.3 1012.3 0.0
26/07:00pm 29.1 30.7 18.2 51 7.0 ESE 7 13 4 7 1011.9 1011.9 0.0
26/06:30pm 30.1 31.4 17.5 46 8.0 ESE 7 11 4 6 1011.4 1011.4 0.0
26/06:00pm 30.9 31.6 16.1 41 9.2 SE 7 11 4 6 1011.1 1011.1 0.0
26/05:30pm 31.8 32.5 16.1 38 9.8 SE 7 9 4 5 1010.9 1010.9 0.0
26/05:00pm 32.6 33.3 15.6 36 10.6 NE 6 9 3 5 1010.6 1010.6 0.0
26/04:30pm 32.9 33.4 15.0 34 11.1 SE 6 9 3 5 1010.3 1010.3 0.0
26/04:00pm 33.5 34.2 15.5 34 11.2 N 6 17 3 9 1010.2 1010.2 0.0
26/03:30pm 33.3 34.1 15.8 35 11.0 NE 6 15 3 8 1010.6 1010.6 0.0
26/03:00pm 33.3 34.3 15.3 34 11.2 ESE 4 15 2 8 1010.9 1010.9 0.0
26/02:30pm 32.6 33.3 15.6 36 10.6 NE 6 13 3 7 1011.3 1011.3 0.0
26/02:00pm 33.2 33.8 15.7 35 10.9 E 7 15 4 8 1011.8 1011.8 0.0
26/01:30pm 32.4 32.5 15.4 36 10.6 ENE 9 15 5 8 1012.3 1012.3 0.0
26/01:00pm 31.7 31.8 15.6 37 10.0 NNE 9 17 5 9 1013.1 1013.1 0.0
26/12:30pm 31.9 32.9 15.4 37 10.2 ENE 4 13 2 7 1013.6 1013.6 0.0
26/12:00pm 31.2 31.3 15.6 39 9.7 ENE 9 15 5 8 1014.2 1014.2 0.0
26/11:30am 30.2 30.5 15.1 40 9.3 NE 7 13 4 7 1014.6 1014.6 0.0
26/11:00am 28.2 30.4 18.3 55 6.3 E 4 9 2 5 1014.9 1014.9 0.0
26/10:30am 27.3 29.2 18.9 60 5.4 NE 7 11 4 6 1015.1 1015.1 0.0
26/10:00am 26.0 29.0 20.1 70 3.8 E 4 9 2 5 1015.2 1015.2 0.0
26/09:30am 24.4 27.8 20.1 77 2.8 ESE 2 6 1 3 1015.2 1015.2 0.0
26/09:00am 22.6 25.8 19.8 84 1.8 E 2 6 1 3 1015.2 1015.2 0.0
26/08:30am 20.9 24.4 20.4 97 0.3 NNE 2 4 1 2 1015.1 1015.1 0.0
26/08:00am 18.6 21.5 18.3 98 0.2 CALM 0 0 0 0 1015.1 1015.1 0.0
26/07:30am 17.2 19.6 16.9 98 0.2 CALM 0 0 0 0 1014.8 1014.8 0.0
26/07:00am 17.8 20.0 17.5 98 0.2 WNW 2 2 1 1 1014.5 1014.5 0.0
26/06:30am 17.3 19.7 17.0 98 0.2 CALM 0 0 0 0 1014.0 1014.0 0.0
26/06:00am 17.3 19.7 17.0 98 0.2 CALM 0 0 0 0 1013.5 1013.5 0.0
26/05:30am 17.6 20.1 17.3 98 0.2 CALM 0 0 0 0 1013.2 1013.2 0.0
26/05:00am 17.9 20.5 17.6 98 0.2 CALM 0 0 0 0 1013.4 1013.4 0.0
26/04:30am 18.6 21.2 18.3 98 0.2 S 2 4 1 2 1013.3 1013.3 0.0
26/04:00am 18.1 20.8 17.8 98 0.2 CALM 0 0 0 0 1013.4 1013.4 0.0
26/03:30am 18.0 20.7 17.7 98 0.2 CALM 0 0 0 0 1013.4 1013.4 0.0
26/03:00am 18.2 21.0 17.9 98 0.2 CALM 0 0 0 0 1013.5 1013.5 0.0
26/02:30am 18.5 21.4 18.2 98 0.2 CALM 0 0 0 0 1013.4 1013.4 0.0
26/02:00am 18.6 21.5 18.3 98 0.2 CALM 0 0 0 0 1013.5 1013.5 0.0
26/01:30am 19.1 22.3 18.8 98 0.2 CALM 0 2 0 1 1013.6 1013.6 0.0
26/01:00am 19.0 22.1 18.7 98 0.2 CALM 0 0 0 0 1013.6 1013.6 0.0
26/12:30am 19.2 22.1 18.2 94 0.6 CALM 0 0 0 0 1013.9 1013.9 0.0
26/12:00am 19.6 22.5 18.3 92 0.8 CALM 0 0 0 0 1014.1 1014.1 0.0
 
Date/Time
CST
Temp
°C
App
Temp
°C
Dew
Point
°C
Rel
Hum
%
Delta-T
°C
Wind Press
QNH
hPa
Press
MSL
hPa
Rain since
9am
mm
Dir  Spd
km/h
Gust
km/h
Spd
kts
Gust
kts
25/11:30pm 20.0 22.9 18.1 89 1.2 CALM 0 0 0 0 1014.3 1014.3 0.0
25/11:00pm 20.8 23.9 18.7 88 1.3 CALM 0 0 0 0 1014.2 1014.2 0.0

Other Formats:

Comma delimited format used in spreadsheet applications
http://www.bom.gov.au/fwo/IDD60801/IDD60801.94106.axf

JavaScript Object Notation format (JSON) in row-major order
http://www.bom.gov.au/fwo/IDD60801/IDD60801.94106.json